Time;durP1;ratioP1;P1;durP2;ratioP2;P2;SDS_P1;SDS_P2;PMS_P1;PMS_P2;Temp;Humidity;BMP_temperature;BMP_pressure;BME280_temperature;BME280_humidity;BME280_pressure;Samples;Min_cycle;Max_cycle;Signal;HPM_P1;HPM_P2
2022/04/26 03:38:36;;;;;;;10.40;3.50;;;7.70;99.90;;;;;;4863388;29;20056;-76
2022/04/26 03:41:02;;;;;;;7.28;3.10;;;7.70;99.90;;;;;;4863294;29;20609;-76
2022/04/26 03:43:29;;;;;;;7.13;2.80;;;7.70;99.90;;;;;;4863182;29;20061;-76
2022/04/26 03:45:55;;;;;;;8.30;3.20;;;7.70;99.90;;;;;;4879926;29;20053;-76
2022/04/26 03:48:21;;;;;;;9.43;3.50;;;7.70;99.90;;;;;;4879959;29;20055;-76
2022/04/26 03:50:47;;;;;;;11.68;3.47;;;7.70;99.90;;;;;;4863373;29;20128;-76
2022/04/26 03:53:12;;;;;;;8.85;3.83;;;7.70;99.90;;;;;;4879673;29;20544;-76
2022/04/26 03:55:38;;;;;;;6.57;3.47;;;7.70;99.90;;;;;;4863182;29;20485;-76
2022/04/26 03:58:04;;;;;;;14.23;3.72;;;7.70;99.90;;;;;;4863410;29;20057;-76
2022/04/26 04:00:29;;;;;;;8.40;3.55;;;7.70;99.90;;;;;;4863329;29;20089;-76
2022/04/26 04:02:55;;;;;;;11.98;3.58;;;7.70;99.90;;;;;;4862795;29;20553;-76
2022/04/26 04:05:24;;;;;;;7.75;3.72;;;7.70;99.90;;;;;;4862781;29;20053;-76
2022/04/26 04:07:49;;;;;;;7.50;3.33;;;7.70;99.90;;;;;;4862143;29;20125;-76
2022/04/26 04:10:15;;;;;;;11.40;3.90;;;7.70;99.90;;;;;;4862177;29;20045;-76
2022/04/26 04:12:41;;;;;;;9.60;3.63;;;7.70;99.90;;;;;;4862707;29;20048;-76
2022/04/26 04:15:07;;;;;;;10.30;3.63;;;7.70;99.90;;;;;;4862885;29;20049;-76
2022/04/26 04:17:33;;;;;;;8.75;3.35;;;7.70;99.90;;;;;;4879696;29;20048;-76
2022/04/26 04:19:58;;;;;;;6.43;3.00;;;7.70;99.90;;;;;;4879489;29;20045;-76
2022/04/26 04:22:24;;;;;;;7.95;3.60;;;7.70;99.90;;;;;;4862726;29;20096;-76
2022/04/26 04:24:50;;;;;;;10.00;3.90;;;7.70;99.90;;;;;;4879631;29;20549;-77
2022/04/26 04:27:15;;;;;;;9.98;4.22;;;7.70;99.90;;;;;;4862726;29;20049;-76
2022/04/26 04:29:41;;;;;;;10.35;3.45;;;7.70;99.90;;;;;;4862962;29;20045;-76
2022/04/26 04:32:07;;;;;;;7.05;3.22;;;7.70;99.90;;;;;;4879467;29;20037;-76
2022/04/26 04:34:32;;;;;;;9.95;3.97;;;7.70;99.90;;;;;;4879171;29;20432;-76
2022/04/26 04:36:58;;;;;;;8.95;3.50;;;7.70;99.90;;;;;;4879536;29;20048;-76
2022/04/26 04:39:24;;;;;;;5.70;2.75;;;7.70;99.90;;;;;;4862589;29;20185;-76
2022/04/26 04:41:51;;;;;;;8.80;3.70;;;7.80;99.90;;;;;;4862805;29;20049;-76
2022/04/26 04:44:17;;;;;;;8.20;3.08;;;7.70;99.90;;;;;;4864642;29;20057;-76
2022/04/26 04:46:43;;;;;;;7.05;3.38;;;7.70;99.90;;;;;;4865913;29;20505;-76
2022/04/26 04:49:09;;;;;;;8.98;3.05;;;7.80;99.90;;;;;;4882611;29;20405;-76
2022/04/26 04:51:35;;;;;;;7.20;3.45;;;7.80;99.90;;;;;;4865817;29;20045;-76
2022/04/26 04:54:01;;;;;;;11.50;4.53;;;7.80;99.90;;;;;;4882772;29;20105;-76
2022/04/26 04:56:27;;;;;;;8.85;3.85;;;7.80;99.90;;;;;;4882876;29;20093;-76
2022/04/26 04:58:56;;;;;;;9.60;4.68;;;7.80;99.90;;;;;;4866152;29;20061;-76
2022/04/26 05:01:22;;;;;;;12.38;4.20;;;7.80;99.90;;;;;;4866010;29;20049;-76
2022/04/26 05:03:48;;;;;;;5.20;3.10;;;7.90;99.90;;;;;;4866033;29;20052;-76
2022/04/26 05:06:15;;;;;;;7.35;3.22;;;7.90;99.90;;;;;;4865617;29;20405;-76
2022/04/26 05:08:42;;;;;;;9.05;3.70;;;7.90;99.90;;;;;;4865698;29;20057;-76
2022/04/26 05:11:07;;;;;;;9.75;3.97;;;8.00;99.90;;;;;;4865591;29;20526;-76
2022/04/26 05:13:33;;;;;;;14.27;4.57;;;8.00;99.90;;;;;;4882498;29;20100;-76
2022/04/26 05:15:59;;;;;;;8.13;3.78;;;8.00;99.90;;;;;;4865501;29;20066;-76
2022/04/26 05:18:24;;;;;;;8.70;3.95;;;8.00;99.90;;;;;;4882361;29;20052;-76
2022/04/26 05:20:50;;;;;;;11.38;3.95;;;8.10;99.90;;;;;;4882054;29;20077;-76
2022/04/26 05:26:00;;;;;;;9.80;4.40;;;8.10;99.90;;;;;;4865320;29;20117;-76
2022/04/26 05:28:25;;;;;;;10.48;4.30;;;8.10;99.90;;;;;;4865190;29;20048;-76
2022/04/26 05:30:55;;;;;;;8.13;4.35;;;8.20;99.90;;;;;;4881884;29;20141;-76
2022/04/26 05:33:21;;;;;;;14.15;3.85;;;8.30;99.90;;;;;;4865126;29;20053;-76
2022/04/26 05:35:48;;;;;;;11.07;3.80;;;8.40;99.90;;;;;;4865114;29;20079;-76
2022/04/26 05:38:15;;;;;;;8.60;4.25;;;8.50;99.90;;;;;;4881675;29;20409;-76
2022/04/26 05:40:41;;;;;;;12.52;4.18;;;8.50;99.90;;;;;;4881923;29;20056;-76
2022/04/26 05:43:07;;;;;;;8.25;4.10;;;8.60;99.90;;;;;;4881719;29;20057;-76
2022/04/26 05:45:33;;;;;;;7.78;4.05;;;8.60;99.90;;;;;;4881921;29;20466;-76
2022/04/26 05:47:58;;;;;;;9.32;4.32;;;8.70;99.90;;;;;;4881626;29;20486;-76
2022/04/26 05:50:24;;;;;;;9.00;3.33;;;8.80;99.90;;;;;;4881780;29;20045;-76
2022/04/26 05:52:50;;;;;;;6.95;3.00;;;9.00;99.90;;;;;;4864779;29;20104;-76
2022/04/26 05:55:15;;;;;;;8.25;3.72;;;9.00;99.90;;;;;;4881205;29;20428;-76
2022/04/26 05:57:42;;;;;;;7.35;3.10;;;9.10;99.90;;;;;;4881437;29;20073;-76
2022/04/26 06:00:10;;;;;;;11.35;3.95;;;9.20;99.90;;;;;;4880226;29;20181;-76
2022/04/26 06:02:35;;;;;;;4.65;3.20;;;9.20;99.90;;;;;;4881530;29;20124;-77
2022/04/26 06:05:01;;;;;;;8.98;3.03;;;9.30;99.90;;;;;;4881314;29;20096;-77
2022/04/26 06:07:28;;;;;;;5.43;2.88;;;9.30;99.90;;;;;;4864863;29;20417;-77
2022/04/26 06:09:55;;;;;;;8.38;2.85;;;9.30;99.90;;;;;;4881387;29;20044;-76
2022/04/26 06:12:25;;;;;;;7.40;3.17;;;9.20;99.90;;;;;;4881279;29;20049;-76
2022/04/26 06:14:50;;;;;;;9.25;3.83;;;9.30;99.90;;;;;;4881259;29;20485;-77
2022/04/26 06:17:16;;;;;;;13.70;3.42;;;9.50;99.90;;;;;;4879999;29;20081;-76
2022/04/26 06:19:41;;;;;;;9.30;2.97;;;9.50;99.90;;;;;;4880153;29;20051;-76
2022/04/26 06:22:07;;;;;;;7.68;3.15;;;9.60;99.90;;;;;;4864508;29;20061;-76
2022/04/26 06:24:33;;;;;;;6.03;3.13;;;9.70;99.90;;;;;;4864309;29;20457;-77
2022/04/26 06:26:58;;;;;;;10.48;3.08;;;9.70;99.90;;;;;;4881203;29;20118;-76
2022/04/26 06:29:24;;;;;;;7.95;3.20;;;9.80;99.90;;;;;;4879711;29;20053;-77
2022/04/26 06:31:49;;;;;;;6.43;3.08;;;9.90;99.90;;;;;;4864034;29;20053;-77
2022/04/26 06:34:16;;;;;;;11.75;2.75;;;10.00;99.90;;;;;;4880925;29;20084;-77
2022/04/26 06:36:42;;;;;;;7.20;2.20;;;10.10;99.90;;;;;;4880662;29;20493;-77
2022/04/26 06:39:07;;;;;;;8.13;3.08;;;10.20;99.90;;;;;;4879683;29;20057;-77
2022/04/26 06:41:33;;;;;;;7.30;2.88;;;10.20;99.90;;;;;;4880788;29;20052;-77
2022/04/26 06:43:59;;;;;;;8.25;3.30;;;10.30;99.90;;;;;;4880046;29;20064;-77
2022/04/26 06:46:24;;;;;;;7.85;2.88;;;10.40;99.90;;;;;;4864095;29;20057;-77
2022/04/26 06:48:50;;;;;;;8.93;3.08;;;10.50;99.90;;;;;;4864069;29;20049;-77
2022/04/26 06:51:16;;;;;;;5.43;2.50;;;10.60;99.90;;;;;;4879061;29;20059;-77
2022/04/26 06:53:42;;;;;;;6.70;2.97;;;10.70;99.90;;;;;;4882473;29;20048;-76
2022/04/26 06:56:07;;;;;;;6.82;3.42;;;10.80;99.90;;;;;;4888371;29;20398;-77
2022/04/26 06:58:33;;;;;;;8.77;3.30;;;10.80;99.90;;;;;;4863530;29;20061;-77
2022/04/26 07:01:00;;;;;;;7.70;2.85;;;11.00;99.90;;;;;;4880260;29;20059;-78
2022/04/26 07:03:26;;;;;;;6.75;3.20;;;11.10;99.90;;;;;;4867734;29;20055;-75
2022/04/26 07:05:52;;;;;;;7.80;3.33;;;11.10;99.90;;;;;;4878742;29;20442;-79
2022/04/26 07:08:18;;;;;;;6.80;2.97;;;11.10;99.90;;;;;;4898741;29;20055;-76
2022/04/26 07:10:44;;;;;;;8.55;2.67;;;11.30;99.90;;;;;;4898856;29;20044;-77
2022/04/26 07:13:10;;;;;;;6.70;2.78;;;11.40;99.90;;;;;;4898559;29;20480;-76
2022/04/26 07:15:36;;;;;;;6.78;2.45;;;11.40;99.90;;;;;;4898627;29;20094;-76
2022/04/26 07:18:02;;;;;;;6.97;3.17;;;11.50;99.90;;;;;;4881762;29;20076;-76
2022/04/26 07:20:31;;;;;;;6.88;2.78;;;11.60;99.90;;;;;;4881706;29;20053;-77
2022/04/26 07:22:57;;;;;;;6.07;2.90;;;11.70;99.90;;;;;;4881652;29;20489;-77
2022/04/26 07:25:22;;;;;;;8.02;3.38;;;11.70;99.90;;;;;;4898535;29;20044;-78
2022/04/26 07:27:48;;;;;;;5.32;2.25;;;11.90;99.90;;;;;;4898465;29;20052;-77
2022/04/26 07:30:14;;;;;;;8.55;3.15;;;11.90;99.90;;;;;;4881848;29;20088;-76
2022/04/26 07:35:24;;;;;;;7.78;2.75;;;11.90;99.90;;;;;;4881717;29;20060;-76
2022/04/26 07:37:49;;;;;;;7.60;2.50;;;12.10;99.90;;;;;;4898554;29;20195;-78
2022/04/26 07:40:17;;;;;;;9.20;2.78;;;12.20;99.90;;;;;;4898365;29;20378;-77
2022/04/26 07:42:43;;;;;;;5.97;2.55;;;12.30;99.90;;;;;;4881166;29;20481;-78
2022/04/26 07:45:09;;;;;;;5.00;2.78;;;12.40;99.90;;;;;;4881461;29;20135;-76
2022/04/26 07:47:36;;;;;;;6.03;2.70;;;12.50;99.90;;;;;;4898354;29;20083;-76
2022/04/26 07:50:03;;;;;;;9.48;2.78;;;12.60;99.90;;;;;;4881337;29;20044;-77
2022/04/26 07:52:29;;;;;;;8.93;3.33;;;12.60;99.90;;;;;;4881195;29;20442;-76
2022/04/26 07:54:54;;;;;;;8.43;2.60;;;12.60;99.90;;;;;;4898137;29;20564;-76
2022/04/26 07:57:20;;;;;;;4.88;2.00;;;12.80;99.90;;;;;;4898144;29;20048;-76
2022/04/26 07:59:46;;;;;;;7.05;2.63;;;12.80;99.90;;;;;;4898329;29;20048;-76
2022/04/26 08:02:11;;;;;;;5.07;2.30;;;12.90;99.90;;;;;;4881237;29;20044;-76
2022/04/26 08:04:37;;;;;;;7.32;3.17;;;12.90;99.90;;;;;;4897964;29;20057;-76
2022/04/26 08:07:04;;;;;;;8.50;2.83;;;12.80;99.90;;;;;;4881040;29;20052;-76
2022/04/26 08:09:32;;;;;;;7.10;3.22;;;12.70;99.90;;;;;;4881342;29;20564;-76
2022/04/26 08:11:57;;;;;;;4.45;2.50;;;12.70;99.90;;;;;;4881287;29;20045;-76
2022/04/26 08:14:23;;;;;;;8.18;2.65;;;12.70;99.90;;;;;;4881244;29;20049;-76
2022/04/26 08:16:48;;;;;;;7.13;2.35;;;12.90;99.90;;;;;;4897569;29;20041;-76
2022/04/26 08:19:14;;;;;;;7.32;2.20;;;13.10;99.90;;;;;;4883261;29;20052;-76
2022/04/26 08:21:40;;;;;;;4.88;1.92;;;13.10;99.90;;;;;;4884623;29;20127;-76
2022/04/26 08:29:34;;;;;;;6.15;2.40;;;13.60;99.90;;;;;;4878858;29;20053;-76
2022/04/26 08:32:00;;;;;;;5.65;2.53;;;13.60;99.90;;;;;;4879242;29;20055;-76
2022/04/26 08:34:26;;;;;;;5.75;2.55;;;13.70;99.90;;;;;;4901543;29;20091;-75
2022/04/26 08:36:51;;;;;;;8.35;3.00;;;13.70;99.90;;;;;;4884879;29;20091;-76
2022/04/26 08:39:17;;;;;;;6.80;2.33;;;13.80;99.90;;;;;;4901149;29;20500;-76
2022/04/26 08:41:43;;;;;;;4.90;2.47;;;13.80;99.90;;;;;;4884727;29;20095;-76
2022/04/26 08:44:10;;;;;;;5.22;2.80;;;13.90;99.90;;;;;;4880735;29;20053;-76
2022/04/26 08:52:08;;;;;;;7.75;2.58;;;14.00;99.90;;;;;;4865530;29;20466;-76
2022/04/26 08:54:35;;;;;;;8.02;2.83;;;14.10;99.90;;;;;;4865640;29;20049;-76
2022/04/26 08:57:02;;;;;;;5.97;2.58;;;14.00;99.90;;;;;;4865615;29;20180;-76
2022/04/26 08:59:28;;;;;;;5.70;2.60;;;14.20;99.90;;;;;;4880081;29;20123;-76
2022/04/26 09:02:20;;;;;;;6.10;2.80;;;14.40;99.90;;;;;;4877076;29;20136;-76
2022/04/26 09:04:50;;;;;;;6.57;2.65;;;14.50;99.90;;;;;;4882408;29;20136;-76
2022/04/26 09:07:33;;;;;;;5.68;2.25;;;14.70;99.90;;;;;;4865683;29;20049;-77
2022/04/26 09:10:11;;;;;;;5.22;2.40;;;14.70;99.90;;;;;;4882335;29;20128;-76
2022/04/26 09:13:01;;;;;;;5.38;2.40;;;14.70;99.90;;;;;;4865022;29;20101;-76
2022/04/26 09:15:38;;;;;;;6.78;2.42;;;14.70;99.90;;;;;;4881886;29;20505;-76
2022/04/26 09:18:15;;;;;;;4.75;2.80;;;15.00;99.90;;;;;;4893019;29;20076;-76
2022/04/26 09:20:43;;;;;;;8.07;2.90;;;15.00;99.90;;;;;;4897970;29;20048;-76
2022/04/26 09:23:17;;;;;;;8.30;3.13;;;15.10;99.90;;;;;;4883738;29;20036;-76
2022/04/26 09:25:43;;;;;;;8.10;3.08;;;15.10;99.90;;;;;;4883548;29;20052;-76
2022/04/26 09:28:17;;;;;;;4.95;2.72;;;15.30;99.90;;;;;;4883072;29;20508;-76
2022/04/26 09:30:43;;;;;;;8.23;3.10;;;15.30;99.90;;;;;;4882924;29;20052;-76
2022/04/26 09:33:08;;;;;;;5.55;2.95;;;15.20;99.90;;;;;;4889576;29;20497;-76
2022/04/26 09:35:35;;;;;;;5.80;2.85;;;15.10;99.90;;;;;;4873414;29;20045;-76
2022/04/26 09:38:00;;;;;;;5.07;2.83;;;14.90;99.90;;;;;;4867844;29;20057;-76
2022/04/26 09:40:35;;;;;;;5.57;3.28;;;15.00;99.90;;;;;;4881822;29;20573;-76
2022/04/26 09:43:00;;;;;;;7.70;2.90;;;15.00;99.90;;;;;;4881308;29;20059;-76
2022/04/26 09:45:26;;;;;;;6.13;2.78;;;15.30;99.90;;;;;;4864739;29;20057;-76
2022/04/26 09:47:57;;;;;;;5.10;2.40;;;15.30;99.90;;;;;;4882684;29;20052;-76
2022/04/26 09:50:24;;;;;;;6.65;2.70;;;15.60;99.90;;;;;;4881899;29;20064;-76
2022/04/26 09:52:50;;;;;;;5.47;2.30;;;15.60;99.90;;;;;;4883179;29;20100;-76
2022/04/26 09:55:15;;;;;;;5.95;2.95;;;15.60;99.90;;;;;;4882933;29;20056;-77
2022/04/26 09:57:43;;;;;;;7.38;2.85;;;15.60;99.90;;;;;;4881465;29;20041;-76
2022/04/26 10:00:11;;;;;;;5.30;2.28;;;15.60;99.90;;;;;;4882203;29;20048;-76
2022/04/26 10:02:44;;;;;;;6.03;2.80;;;15.70;99.90;;;;;;4883008;29;20569;-76
2022/04/26 10:05:13;;;;;;;5.43;2.63;;;15.80;99.90;;;;;;4882724;29;20132;-76
2022/04/26 10:07:45;;;;;;;7.28;2.90;;;15.90;99.90;;;;;;4882638;29;20096;-76
2022/04/26 10:10:11;;;;;;;9.30;3.65;;;16.00;99.90;;;;;;4882755;29;20043;-74
2022/04/26 10:12:37;;;;;;;6.00;2.40;;;15.90;99.90;;;;;;4882971;29;20049;-84
2022/04/26 10:15:04;;;;;;;6.55;2.40;;;15.90;99.90;;;;;;4882850;29;20052;-82
2022/04/26 10:17:32;;;;;;;4.95;2.70;;;16.10;99.90;;;;;;4899515;29;20050;-81
2022/04/26 10:20:03;;;;;;;5.15;2.78;;;15.90;99.90;;;;;;4899536;29;20056;-80
2022/04/26 10:22:53;;;;;;;6.35;2.85;;;16.00;99.90;;;;;;4899908;29;20507;-81
2022/04/26 10:25:21;;;;;;;7.05;3.00;;;16.30;99.90;;;;;;4882641;29;20560;-80
2022/04/26 10:28:23;;;;;;;8.60;2.78;;;16.10;99.90;;;;;;4882640;29;20485;-80
2022/04/26 10:30:54;;;;;;;7.63;2.80;;;15.70;99.90;;;;;;4882854;29;20052;-80
2022/04/26 10:33:44;;;;;;;6.50;2.58;;;15.50;99.90;;;;;;4899606;29;20051;-80
2022/04/26 10:36:19;;;;;;;6.32;2.95;;;15.60;99.90;;;;;;4882625;29;20080;-80
2022/04/26 10:39:11;;;;;;;6.30;2.90;;;15.70;99.90;;;;;;4899508;29;20055;-80
2022/04/26 10:41:43;;;;;;;6.55;3.15;;;15.70;99.90;;;;;;4898449;29;20537;-82
2022/04/26 10:47:01;;;;;;;7.47;3.20;;;16.10;99.90;;;;;;4899131;29;20120;-88
2022/04/26 10:49:33;;;;;;;7.93;3.22;;;16.30;99.90;;;;;;4866664;29;20183;-78
2022/04/26 10:52:19;;;;;;;4.72;2.45;;;16.60;99.90;;;;;;4866618;29;20052;-79
2022/04/26 10:55:01;;;;;;;4.85;2.70;;;16.50;99.90;;;;;;4898760;29;20060;-81
2022/04/26 10:57:33;;;;;;;5.15;2.80;;;16.30;99.90;;;;;;4881931;29;20048;-75
2022/04/26 11:00:07;;;;;;;7.25;3.20;;;16.10;99.90;;;;;;4899005;29;20059;-76
2022/04/26 11:02:36;;;;;;;8.63;2.80;;;16.30;99.90;;;;;;4882011;29;20059;-77
2022/04/26 11:05:02;;;;;;;7.22;2.88;;;16.10;99.90;;;;;;4898998;29;20048;-75
2022/04/26 11:07:29;;;;;;;8.63;3.13;;;16.40;99.90;;;;;;4882524;29;20045;-76
2022/04/26 11:09:59;;;;;;;6.65;3.05;;;16.40;99.90;;;;;;4882450;29;20067;-77
2022/04/26 11:12:33;;;;;;;5.68;2.80;;;16.00;99.90;;;;;;4898798;29;20497;-78
2022/04/26 11:15:01;;;;;;;7.65;3.10;;;15.90;99.90;;;;;;4882021;29;20053;-76
2022/04/26 11:17:29;;;;;;;5.90;2.80;;;15.80;99.90;;;;;;4881917;29;20060;-76
2022/04/26 11:19:59;;;;;;;5.22;2.65;;;15.90;99.90;;;;;;4882094;29;20092;-76
2022/04/26 11:22:26;;;;;;;4.70;2.50;;;16.20;99.90;;;;;;4881938;29;20047;-76
2022/04/26 11:28:01;;;;;;;7.95;2.90;;;16.00;96.40;;;;;;4882105;29;20064;-76
2022/04/26 11:30:35;;;;;;;6.25;2.67;;;15.80;99.90;;;;;;4882015;29;20509;-76
2022/04/26 11:33:04;;;;;;;7.13;2.92;;;15.80;99.90;;;;;;4881730;29;20062;-76
2022/04/26 11:35:30;;;;;;;6.25;2.60;;;15.90;99.90;;;;;;4881730;29;20072;-76
2022/04/26 11:38:14;;;;;;;4.75;3.20;;;16.10;99.90;;;;;;4881891;29;20123;-76
2022/04/26 11:40:58;;;;;;;9.13;5.05;;;16.10;99.90;;;;;;4881931;29;20048;-76
2022/04/26 11:43:26;;;;;;;5.32;3.08;;;16.30;99.90;;;;;;4884579;29;20120;-76
2022/04/26 11:45:54;;;;;;;7.15;3.10;;;16.50;99.90;;;;;;4897229;29;20610;-76
2022/04/26 11:48:22;;;;;;;5.45;2.60;;;16.50;99.90;;;;;;4897375;29;20049;-76
2022/04/26 11:50:50;;;;;;;4.80;3.30;;;16.60;99.90;;;;;;4898574;29;20084;-76
2022/04/26 11:53:18;;;;;;;8.32;3.75;;;16.40;99.90;;;;;;4897972;29;20093;-76
2022/04/26 11:55:46;;;;;;;7.72;3.63;;;16.30;99.90;;;;;;4897043;29;20123;-76
2022/04/26 11:58:13;;;;;;;9.63;3.30;;;15.90;99.90;;;;;;4897016;29;20056;-76
2022/04/26 12:01:00;;;;;;;7.45;3.63;;;16.00;99.90;;;;;;4896983;29;20048;-76
2022/04/26 12:03:34;;;;;;;8.30;3.60;;;15.50;99.90;;;;;;4898218;29;20045;-76
2022/04/26 12:06:04;;;;;;;7.22;3.58;;;15.80;99.90;;;;;;4897364;29;20099;-76
2022/04/26 12:08:36;;;;;;;16.27;11.40;;;15.60;99.90;;;;;;4897049;29;20094;-76
2022/04/26 12:11:15;;;;;;;8.70;3.85;;;15.70;99.90;;;;;;4897053;29;20056;-76
2022/04/26 12:13:40;;;;;;;5.82;3.60;;;15.80;99.90;;;;;;4896766;29;20049;-76
2022/04/26 12:16:20;;;;;;;8.07;3.28;;;15.50;99.90;;;;;;4896958;29;20504;-76
2022/04/26 12:18:52;;;;;;;5.50;3.20;;;15.20;99.90;;;;;;4897121;29;20063;-76
2022/04/26 12:21:18;;;;;;;7.72;3.25;;;15.30;99.90;;;;;;4897078;29;20056;-76
2022/04/26 12:23:44;;;;;;;9.80;3.20;;;15.50;99.90;;;;;;4896878;29;20053;-76
2022/04/26 12:26:10;;;;;;;6.93;3.40;;;15.40;99.90;;;;;;4897061;29;20095;-76
2022/04/26 12:28:46;;;;;;;6.68;3.20;;;15.30;99.90;;;;;;4896869;29;20401;-76
2022/04/26 12:31:25;;;;;;;5.30;2.78;;;15.10;99.90;;;;;;4898217;29;20063;-76
2022/04/26 12:34:12;;;;;;;7.47;3.45;;;15.10;99.90;;;;;;4896718;29;20516;-76
2022/04/26 12:36:59;;;;;;;7.35;3.20;;;14.80;99.90;;;;;;4897001;29;20087;-76
2022/04/26 12:39:40;;;;;;;10.25;3.70;;;15.00;99.90;;;;;;4896755;29;20143;-76
2022/04/26 12:42:07;;;;;;;8.73;3.00;;;14.80;99.90;;;;;;4896700;29;20048;-76
2022/04/26 12:44:33;;;;;;;8.02;3.15;;;14.90;99.90;;;;;;4896559;29;20135;-77
2022/04/26 12:52:55;;;;;;;8.15;3.20;;;14.70;99.90;;;;;;4897828;29;20050;-82
2022/04/26 12:55:27;;;;;;;6.00;2.85;;;14.50;99.90;;;;;;4896772;29;20131;-83
2022/04/26 12:57:54;;;;;;;;;;;14.40;99.90;;;;;;4897151;29;20048;-82
2022/04/26 13:00:22;;;;;;;6.03;3.20;;;14.50;99.90;;;;;;4897643;29;20019;-81
2022/04/26 13:02:52;;;;;;;6.97;3.60;;;14.20;99.90;;;;;;4896471;29;20056;-82
2022/04/26 13:05:19;;;;;;;8.02;3.08;;;14.40;99.90;;;;;;4899101;29;20104;-81
2022/04/26 13:07:46;;;;;;;6.70;3.15;;;14.20;99.90;;;;;;4900256;29;20061;-80
2022/04/26 13:10:16;;;;;;;10.10;3.63;;;14.20;99.90;;;;;;4899924;29;20059;-83
2022/04/26 13:12:42;;;;;;;7.85;3.25;;;14.20;99.90;;;;;;4901267;29;20111;-84
2022/04/26 13:15:08;;;;;;;4.85;3.03;;;14.40;99.90;;;;;;4900897;29;20477;-76
2022/04/26 13:17:37;;;;;;;8.32;3.35;;;14.80;99.90;;;;;;4901170;29;20045;-81
2022/04/26 13:20:05;;;;;;;6.13;3.17;;;14.50;99.90;;;;;;4901004;29;20056;-80
2022/04/26 13:22:35;;;;;;;4.82;3.15;;;14.30;99.90;;;;;;4899660;29;20524;-81
2022/04/26 13:25:03;;;;;;;5.00;3.00;;;14.20;99.90;;;;;;4899579;29;20113;-81
2022/04/26 13:27:33;;;;;;;9.30;3.40;;;14.10;99.90;;;;;;4899542;29;20044;-80
2022/04/26 13:29:59;;;;;;;7.82;3.50;;;13.90;99.90;;;;;;4900914;29;20048;-81
2022/04/26 13:32:25;;;;;;;6.07;3.17;;;13.80;99.90;;;;;;4900592;29;20504;-80
2022/04/26 13:34:54;;;;;;;5.38;2.72;;;13.90;99.90;;;;;;4899427;29;20056;-80
2022/04/26 13:37:21;;;;;;;5.95;3.17;;;14.00;99.90;;;;;;4899321;29;20048;-79
2022/04/26 13:39:49;;;;;;;9.45;3.28;;;13.70;99.90;;;;;;4899272;29;20420;-80
2022/04/26 13:42:16;;;;;;;5.68;3.20;;;13.50;99.90;;;;;;4899225;29;20104;-80
2022/04/26 13:44:42;;;;;;;9.00;3.40;;;13.40;99.90;;;;;;4899182;29;20125;-79
2022/04/26 13:47:08;;;;;;;8.02;3.35;;;13.40;99.90;;;;;;4899319;29;20446;-80
2022/04/26 13:49:35;;;;;;;8.10;3.08;;;13.40;99.90;;;;;;4899397;29;20055;-81
2022/04/26 13:52:04;;;;;;;9.35;3.58;;;13.40;99.90;;;;;;4899215;29;20084;-78
2022/04/26 13:54:30;;;;;;;6.68;3.28;;;13.50;99.90;;;;;;4899117;29;20041;-79
2022/04/26 13:56:56;;;;;;;7.93;3.47;;;13.50;99.90;;;;;;4899108;29;20112;-79
2022/04/26 13:59:23;;;;;;;7.03;3.25;;;13.50;99.90;;;;;;4899245;29;20044;-79
2022/04/26 14:01:52;;;;;;;6.53;3.08;;;13.70;99.90;;;;;;4898941;29;20059;-79
2022/04/26 14:04:22;;;;;;;6.15;3.15;;;13.70;99.90;;;;;;4899137;29;20044;-80
2022/04/26 14:06:48;;;;;;;7.22;3.15;;;13.70;99.90;;;;;;4900301;29;20083;-75
2022/04/26 14:09:14;;;;;;;8.77;3.45;;;13.60;99.90;;;;;;4898901;29;20101;-75
2022/04/26 14:11:40;;;;;;;10.48;3.33;;;13.40;99.90;;;;;;4898621;29;20540;-75
2022/04/26 14:22:20;;;;;;;6.07;3.15;;;13.10;99.90;;;;;;4898562;29;20132;-76
2022/04/26 14:24:48;;;;;;;7.93;3.60;;;13.50;99.90;;;;;;4898524;29;20136;-76
2022/04/26 14:27:14;;;;;;;9.05;3.05;;;13.60;99.90;;;;;;4898455;29;20052;-75
2022/04/26 14:29:40;;;;;;;8.18;3.88;;;13.70;99.90;;;;;;4898590;29;20553;-75
2022/04/26 14:32:07;;;;;;;9.68;3.60;;;13.70;99.90;;;;;;4899778;29;20045;-75
2022/04/26 14:34:33;;;;;;;8.00;2.97;;;14.00;99.90;;;;;;4898631;29;20068;-75
2022/04/26 14:37:03;;;;;;;7.78;3.40;;;14.10;99.90;;;;;;4898606;29;20433;-75
2022/04/26 14:39:29;;;;;;;7.30;3.17;;;14.00;99.90;;;;;;4898192;29;20040;-75
2022/04/26 14:41:55;;;;;;;9.98;3.70;;;14.20;99.90;;;;;;4898424;29;20044;-75
2022/04/26 14:44:20;;;;;;;6.90;3.20;;;14.10;99.90;;;;;;4897998;29;20501;-75
2022/04/26 14:46:46;;;;;;;7.57;3.17;;;14.10;99.90;;;;;;4899325;29;20188;-77
2022/04/26 14:49:12;;;;;;;7.00;3.20;;;13.80;99.90;;;;;;4898357;29;20131;-77
2022/04/26 14:51:37;;;;;;;7.15;3.30;;;14.00;99.90;;;;;;4899083;29;20478;-75
2022/04/26 14:54:03;;;;;;;6.05;3.63;;;14.00;99.90;;;;;;4898030;29;20568;-75
2022/04/26 14:56:28;;;;;;;12.13;3.50;;;13.90;99.90;;;;;;4897977;29;20051;-76
2022/04/26 14:58:55;;;;;;;7.30;3.63;;;13.90;99.90;;;;;;4897782;29;20056;-76
2022/04/26 15:01:21;;;;;;;8.65;3.60;;;13.90;99.90;;;;;;4897795;29;20127;-74
2022/04/26 15:03:47;;;;;;;7.68;3.75;;;14.10;99.90;;;;;;4897776;29;20075;-76
2022/04/26 15:06:12;;;;;;;8.27;3.30;;;14.20;99.90;;;;;;4898061;29;20084;-76
2022/04/26 15:11:22;;;;;;;6.13;3.30;;;14.10;99.90;;;;;;4897875;29;20135;-76
2022/04/26 15:16:37;;;;;;;7.97;3.13;;;14.00;99.90;;;;;;4897613;29;20067;-76
2022/04/26 15:19:09;;;;;;;8.80;3.72;;;14.10;99.90;;;;;;4897861;29;20052;-78
2022/04/26 15:21:35;;;;;;;7.95;3.55;;;14.10;99.90;;;;;;4897451;29;20052;-77
2022/04/26 15:24:01;;;;;;;7.60;3.40;;;14.00;99.90;;;;;;4898900;29;20048;-76
2022/04/26 15:26:27;;;;;;;10.20;3.42;;;13.90;99.90;;;;;;4897525;29;20056;-76
2022/04/26 15:28:53;;;;;;;11.98;3.25;;;13.90;99.90;;;;;;4897535;29;20063;-76
2022/04/26 15:31:19;;;;;;;6.25;2.95;;;13.80;99.90;;;;;;4897575;29;20386;-76
2022/04/26 15:33:46;;;;;;;9.55;3.70;;;13.70;99.90;;;;;;4895316;29;20044;-76
2022/04/26 15:36:13;;;;;;;5.63;3.17;;;13.80;99.90;;;;;;4871200;29;20045;-76
2022/04/26 15:38:39;;;;;;;9.02;3.22;;;13.70;99.90;;;;;;4860101;29;20093;-76
2022/04/26 15:41:05;;;;;;;6.05;2.90;;;13.70;99.90;;;;;;4860059;29;20073;-76
2022/04/26 15:43:36;;;;;;;5.22;3.22;;;13.70;99.90;;;;;;4867701;29;20101;-77
2022/04/26 15:46:04;;;;;;;6.07;3.17;;;13.70;99.90;;;;;;4879809;29;20132;-77
2022/04/26 15:48:30;;;;;;;6.88;3.17;;;13.70;99.90;;;;;;4879627;29;20045;-76
2022/04/26 15:50:56;;;;;;;5.80;3.20;;;13.70;99.90;;;;;;4879654;29;20397;-75
2022/04/26 15:53:22;;;;;;;9.77;4.30;;;13.60;99.90;;;;;;4862702;29;20041;-76
2022/04/26 15:55:48;;;;;;;11.13;3.80;;;13.50;99.90;;;;;;4879589;29;20413;-77
2022/04/26 15:58:14;;;;;;;10.13;3.78;;;13.70;99.90;;;;;;4862957;29;20120;-76
2022/04/26 16:00:40;;;;;;;7.50;3.95;;;13.70;99.90;;;;;;4862701;29;20519;-76
2022/04/26 16:03:06;;;;;;;8.43;3.28;;;13.60;99.90;;;;;;4879526;29;20060;-76
2022/04/26 16:05:33;;;;;;;6.20;3.10;;;13.70;99.90;;;;;;4879116;29;20049;-76
2022/04/26 16:07:58;;;;;;;8.35;3.17;;;13.50;99.90;;;;;;4879575;29;20165;-76
2022/04/26 16:21:32;;;;;;;8.95;3.30;;;13.10;99.90;;;;;;4812613;29;20051;-76
2022/04/26 16:24:00;;;;;;;8.40;3.55;;;13.00;99.90;;;;;;4878194;29;20053;-78
2022/04/26 16:26:27;;;;;;;5.45;3.20;;;12.90;99.90;;;;;;4877859;29;20525;-78
2022/04/26 16:28:53;;;;;;;6.18;3.15;;;12.90;99.90;;;;;;4879094;29;20454;-76
2022/04/26 16:31:29;;;;;;;8.27;3.50;;;12.80;99.90;;;;;;4862675;29;20053;-76
2022/04/26 16:33:59;;;;;;;8.23;3.50;;;12.80;99.90;;;;;;4879042;29;20048;-76
2022/04/26 16:36:25;;;;;;;8.15;3.00;;;12.90;99.90;;;;;;4879181;29;20045;-76
2022/04/26 16:38:52;;;;;;;5.53;3.05;;;13.00;99.90;;;;;;4862513;29;20053;-76
2022/04/26 16:41:19;;;;;;;7.03;2.70;;;12.90;99.90;;;;;;4866125;29;20496;-76
2022/04/26 16:43:46;;;;;;;7.47;2.90;;;12.80;99.90;;;;;;4882550;29;20065;-76
2022/04/26 16:46:15;;;;;;;9.70;3.13;;;13.00;99.90;;;;;;4882830;29;20064;-76
2022/04/26 16:48:42;;;;;;;9.50;3.33;;;12.90;99.90;;;;;;4865821;29;20053;-76
2022/04/26 16:51:08;;;;;;;5.97;3.20;;;12.70;99.90;;;;;;4881281;29;20053;-76
2022/04/26 16:53:33;;;;;;;6.68;3.25;;;12.70;99.90;;;;;;4882250;29;20052;-76
2022/04/26 16:55:59;;;;;;;7.45;3.80;;;12.70;99.90;;;;;;4882535;29;20045;-76
2022/04/26 16:58:25;;;;;;;6.43;2.67;;;12.70;99.90;;;;;;4881113;29;20072;-76
2022/04/26 17:00:50;;;;;;;5.85;3.03;;;12.70;99.90;;;;;;4882542;29;20114;-76
2022/04/26 17:03:16;;;;;;;7.72;3.05;;;12.70;99.90;;;;;;4881055;29;20040;-76
2022/04/26 17:05:47;;;;;;;7.68;3.15;;;12.70;99.90;;;;;;4882086;29;20175;-76
2022/04/26 17:08:14;;;;;;;9.02;3.00;;;12.60;99.90;;;;;;4882303;29;20057;-77
2022/04/26 17:10:41;;;;;;;7.90;2.92;;;12.50;99.90;;;;;;4865392;29;20072;-76
2022/04/26 17:13:07;;;;;;;6.30;2.53;;;12.60;99.90;;;;;;4865310;29;20061;-76
2022/04/26 17:15:33;;;;;;;7.47;2.50;;;12.60;99.90;;;;;;4865673;29;20052;-78
2022/04/26 17:17:58;;;;;;;6.22;3.22;;;12.60;99.90;;;;;;4880973;29;20056;-76
2022/04/26 17:20:25;;;;;;;8.75;2.75;;;12.60;99.90;;;;;;4882150;29;20493;-77
2022/04/26 17:22:51;;;;;;;5.75;2.53;;;12.50;99.90;;;;;;4865235;29;20041;-77